San Diego, California
Traffic Map
Current Weather Conditions
San Diego, California
Overcast
Overcast
70°
Feels Like: 70°
Wind Chill: 70° Ceiling: 1500
Heat Index: 70° Visibility: 10mi
Dew Point: 62° Wind: 3mph
Humidity: 76% Direction: 30° (NNE)
Pressure: 29.93in Gusts: 0mph
Raw Report DataKSAN 020751Z 03003KT 10SM OVC015 21/17 A2993 RMK AO2 SLP136 T02110167 402500211 $
Traffic Incident Summary
Active as of:
Severity:
Category:
InformationThere was an issue retrieving the traffic information for this location. Please try a different location or try again shortly.
Advertisements
Track Severe Weather on mobile